sensor_id;sensor_type;location;lat;lon;timestamp;temperature;humidity
72126;SHT31;59999;51.676;22.650;2022-12-07T00:01:14;0.77;93.04
72126;SHT31;59999;51.676;22.650;2022-12-07T00:03:42;0.77;93.01
72126;SHT31;59999;51.676;22.650;2022-12-07T00:06:10;0.80;92.97
72126;SHT31;59999;51.676;22.650;2022-12-07T00:08:37;0.84;92.95
72126;SHT31;59999;51.676;22.650;2022-12-07T00:11:24;0.82;93.02
72126;SHT31;59999;51.676;22.650;2022-12-07T00:13:55;0.80;92.97
72126;SHT31;59999;51.676;22.650;2022-12-07T00:16:22;0.83;93.00
72126;SHT31;59999;51.676;22.650;2022-12-07T00:18:48;0.77;93.08
72126;SHT31;59999;51.676;22.650;2022-12-07T00:21:17;0.82;93.21
72126;SHT31;59999;51.676;22.650;2022-12-07T00:23:45;0.82;93.21
72126;SHT31;59999;51.676;22.650;2022-12-07T00:26:21;0.82;93.60
72126;SHT31;59999;51.676;22.650;2022-12-07T00:28:49;0.84;93.64
72126;SHT31;59999;51.676;22.650;2022-12-07T00:31:17;0.86;93.55
72126;SHT31;59999;51.676;22.650;2022-12-07T00:33:44;0.87;93.47
72126;SHT31;59999;51.676;22.650;2022-12-07T00:36:15;0.89;93.38
72126;SHT31;59999;51.676;22.650;2022-12-07T00:38:42;0.86;93.42
72126;SHT31;59999;51.676;22.650;2022-12-07T00:41:15;0.89;93.48
72126;SHT31;59999;51.676;22.650;2022-12-07T00:43:43;0.90;93.49
72126;SHT31;59999;51.676;22.650;2022-12-07T00:46:10;0.87;93.55
72126;SHT31;59999;51.676;22.650;2022-12-07T00:48:37;0.91;93.56
72126;SHT31;59999;51.676;22.650;2022-12-07T00:51:04;0.96;93.46
72126;SHT31;59999;51.676;22.650;2022-12-07T00:53:33;0.94;93.56
72126;SHT31;59999;51.676;22.650;2022-12-07T00:56:07;0.94;93.53
72126;SHT31;59999;51.676;22.650;2022-12-07T00:58:34;0.94;93.65
72126;SHT31;59999;51.676;22.650;2022-12-07T01:01:02;0.94;93.75
72126;SHT31;59999;51.676;22.650;2022-12-07T01:03:28;0.93;93.75
72126;SHT31;59999;51.676;22.650;2022-12-07T01:05:55;0.96;93.80
72126;SHT31;59999;51.676;22.650;2022-12-07T01:08:22;0.96;93.83
72126;SHT31;59999;51.676;22.650;2022-12-07T01:10:49;0.97;93.85
72126;SHT31;59999;51.676;22.650;2022-12-07T01:13:16;0.97;93.86
72126;SHT31;59999;51.676;22.650;2022-12-07T01:15:42;0.99;93.91
72126;SHT31;59999;51.676;22.650;2022-12-07T01:18:10;0.99;93.91
72126;SHT31;59999;51.676;22.650;2022-12-07T01:20:36;1.01;93.90
72126;SHT31;59999;51.676;22.650;2022-12-07T01:23:03;1.01;93.90
72126;SHT31;59999;51.676;22.650;2022-12-07T01:25:29;1.03;93.94
72126;SHT31;59999;51.676;22.650;2022-12-07T01:27:55;1.05;93.92
72126;SHT31;59999;51.676;22.650;2022-12-07T01:30:21;1.04;93.94
72126;SHT31;59999;51.676;22.650;2022-12-07T01:32:47;1.05;93.90
72126;SHT31;59999;51.676;22.650;2022-12-07T01:35:13;1.08;93.91
72126;SHT31;59999;51.676;22.650;2022-12-07T01:37:39;1.05;93.89
72126;SHT31;59999;51.676;22.650;2022-12-07T01:40:06;1.10;93.91
72126;SHT31;59999;51.676;22.650;2022-12-07T01:42:34;1.10;93.94
72126;SHT31;59999;51.676;22.650;2022-12-07T01:47:51;1.10;93.99
72126;SHT31;59999;51.676;22.650;2022-12-07T01:50:19;1.11;94.00
72126;SHT31;59999;51.676;22.650;2022-12-07T01:52:49;1.16;93.98
72126;SHT31;59999;51.676;22.650;2022-12-07T01:55:17;1.17;93.96
72126;SHT31;59999;51.676;22.650;2022-12-07T01:57:48;1.17;93.96
72126;SHT31;59999;51.676;22.650;2022-12-07T02:00:14;1.16;93.92
72126;SHT31;59999;51.676;22.650;2022-12-07T02:03:06;1.20;93.88
72126;SHT31;59999;51.676;22.650;2022-12-07T02:05:34;1.20;93.87
72126;SHT31;59999;51.676;22.650;2022-12-07T02:08:02;1.23;93.81
72126;SHT31;59999;51.676;22.650;2022-12-07T02:10:30;1.23;93.80
72126;SHT31;59999;51.676;22.650;2022-12-07T02:13:08;1.23;93.82
72126;SHT31;59999;51.676;22.650;2022-12-07T02:15:45;1.20;93.75
72126;SHT31;59999;51.676;22.650;2022-12-07T02:21:34;1.24;93.91
72126;SHT31;59999;51.676;22.650;2022-12-07T02:26:39;1.24;93.89
72126;SHT31;59999;51.676;22.650;2022-12-07T02:29:25;1.28;93.85
72126;SHT31;59999;51.676;22.650;2022-12-07T02:32:07;1.30;93.97
72126;SHT31;59999;51.676;22.650;2022-12-07T02:37:13;1.34;94.03
72126;SHT31;59999;51.676;22.650;2022-12-07T02:39:46;1.41;94.05
72126;SHT31;59999;51.676;22.650;2022-12-07T02:42:17;1.49;93.99
72126;SHT31;59999;51.676;22.650;2022-12-07T02:44:45;1.51;93.74
72126;SHT31;59999;51.676;22.650;2022-12-07T02:47:14;1.54;93.46
72126;SHT31;59999;51.676;22.650;2022-12-07T02:49:41;1.58;93.34
72126;SHT31;59999;51.676;22.650;2022-12-07T02:52:07;1.59;93.18
72126;SHT31;59999;51.676;22.650;2022-12-07T02:54:33;1.59;92.97
72126;SHT31;59999;51.676;22.650;2022-12-07T03:00:18;1.62;92.65
72126;SHT31;59999;51.676;22.650;2022-12-07T03:03:00;1.66;92.43
72126;SHT31;59999;51.676;22.650;2022-12-07T03:05:54;1.65;92.49
72126;SHT31;59999;51.676;22.650;2022-12-07T03:08:46;1.65;92.54
72126;SHT31;59999;51.676;22.650;2022-12-07T03:16:44;1.62;92.55
72126;SHT31;59999;51.676;22.650;2022-12-07T03:19:17;1.65;92.41
72126;SHT31;59999;51.676;22.650;2022-12-07T03:21:46;1.63;92.49
72126;SHT31;59999;51.676;22.650;2022-12-07T03:24:19;1.63;92.42
72126;SHT31;59999;51.676;22.650;2022-12-07T03:26:50;1.72;92.15
72126;SHT31;59999;51.676;22.650;2022-12-07T03:29:25;1.69;92.02
72126;SHT31;59999;51.676;22.650;2022-12-07T03:31:59;1.69;92.01
72126;SHT31;59999;51.676;22.650;2022-12-07T03:34:34;1.70;92.17
72126;SHT31;59999;51.676;22.650;2022-12-07T03:37:08;1.69;92.07
72126;SHT31;59999;51.676;22.650;2022-12-07T03:40:10;1.69;92.10
72126;SHT31;59999;51.676;22.650;2022-12-07T03:42:29;1.72;92.06
72126;SHT31;59999;51.676;22.650;2022-12-07T03:44:55;1.68;91.92
72126;SHT31;59999;51.676;22.650;2022-12-07T03:47:34;1.66;91.81
72126;SHT31;59999;51.676;22.650;2022-12-07T03:50:10;1.69;91.85
72126;SHT31;59999;51.676;22.650;2022-12-07T03:52:45;1.65;91.83
72126;SHT31;59999;51.676;22.650;2022-12-07T03:55:20;1.58;91.97
72126;SHT31;59999;51.676;22.650;2022-12-07T03:57:51;1.55;92.04
72126;SHT31;59999;51.676;22.650;2022-12-07T04:00:18;1.56;91.88
72126;SHT31;59999;51.676;22.650;2022-12-07T04:02:45;1.52;91.89
72126;SHT31;59999;51.676;22.650;2022-12-07T04:05:11;1.52;91.87
72126;SHT31;59999;51.676;22.650;2022-12-07T04:07:37;1.52;91.79
72126;SHT31;59999;51.676;22.650;2022-12-07T04:10:04;1.44;91.81
72126;SHT31;59999;51.676;22.650;2022-12-07T04:12:30;1.47;91.69
72126;SHT31;59999;51.676;22.650;2022-12-07T04:14:56;1.42;91.71
72126;SHT31;59999;51.676;22.650;2022-12-07T04:17:22;1.44;91.75
72126;SHT31;59999;51.676;22.650;2022-12-07T04:19:48;1.41;91.71
72126;SHT31;59999;51.676;22.650;2022-12-07T04:22:15;1.40;91.80
72126;SHT31;59999;51.676;22.650;2022-12-07T04:24:41;1.40;91.76
72126;SHT31;59999;51.676;22.650;2022-12-07T04:27:07;1.34;91.78
72126;SHT31;59999;51.676;22.650;2022-12-07T04:29:33;1.34;91.93
72126;SHT31;59999;51.676;22.650;2022-12-07T04:31:59;1.27;91.97
72126;SHT31;59999;51.676;22.650;2022-12-07T04:34:25;1.27;91.91
72126;SHT31;59999;51.676;22.650;2022-12-07T04:36:51;1.24;91.98
72126;SHT31;59999;51.676;22.650;2022-12-07T04:39:23;1.26;91.87
72126;SHT31;59999;51.676;22.650;2022-12-07T04:41:50;1.21;91.82
72126;SHT31;59999;51.676;22.650;2022-12-07T04:44:16;1.19;91.98
72126;SHT31;59999;51.676;22.650;2022-12-07T04:46:42;1.13;92.15
72126;SHT31;59999;51.676;22.650;2022-12-07T04:49:09;1.13;92.17
72126;SHT31;59999;51.676;22.650;2022-12-07T04:51:36;1.11;92.07
72126;SHT31;59999;51.676;22.650;2022-12-07T04:54:02;1.07;92.20
72126;SHT31;59999;51.676;22.650;2022-12-07T04:56:28;1.10;91.83
72126;SHT31;59999;51.676;22.650;2022-12-07T04:58:54;1.10;91.97
72126;SHT31;59999;51.676;22.650;2022-12-07T05:01:22;1.00;92.19
72126;SHT31;59999;51.676;22.650;2022-12-07T05:03:48;0.99;92.28
72126;SHT31;59999;51.676;22.650;2022-12-07T05:06:15;0.99;92.33
72126;SHT31;59999;51.676;22.650;2022-12-07T05:08:41;0.94;92.27
72126;SHT31;59999;51.676;22.650;2022-12-07T05:11:08;0.96;92.21
72126;SHT31;59999;51.676;22.650;2022-12-07T05:13:34;0.94;92.19
72126;SHT31;59999;51.676;22.650;2022-12-07T05:16:01;0.91;92.30
72126;SHT31;59999;51.676;22.650;2022-12-07T05:18:27;0.87;92.40
72126;SHT31;59999;51.676;22.650;2022-12-07T05:20:53;0.86;92.44
72126;SHT31;59999;51.676;22.650;2022-12-07T05:23:20;0.86;92.47
72126;SHT31;59999;51.676;22.650;2022-12-07T05:25:46;0.84;92.43
72126;SHT31;59999;51.676;22.650;2022-12-07T05:28:12;0.84;92.52
72126;SHT31;59999;51.676;22.650;2022-12-07T05:30:38;0.83;92.46
72126;SHT31;59999;51.676;22.650;2022-12-07T05:33:04;0.82;92.41
72126;SHT31;59999;51.676;22.650;2022-12-07T05:35:31;0.76;92.59
72126;SHT31;59999;51.676;22.650;2022-12-07T05:37:56;0.76;92.70
72126;SHT31;59999;51.676;22.650;2022-12-07T05:40:24;0.76;92.87
72126;SHT31;59999;51.676;22.650;2022-12-07T05:42:49;0.76;92.83
72126;SHT31;59999;51.676;22.650;2022-12-07T05:45:16;0.73;92.80
72126;SHT31;59999;51.676;22.650;2022-12-07T05:47:41;0.79;92.75
72126;SHT31;59999;51.676;22.650;2022-12-07T05:50:08;0.77;92.74
72126;SHT31;59999;51.676;22.650;2022-12-07T05:52:34;0.77;92.66
72126;SHT31;59999;51.676;22.650;2022-12-07T05:55:00;0.79;92.73
72126;SHT31;59999;51.676;22.650;2022-12-07T05:57:26;0.79;92.72
72126;SHT31;59999;51.676;22.650;2022-12-07T05:59:52;0.79;92.67
72126;SHT31;59999;51.676;22.650;2022-12-07T06:02:18;0.77;92.59
72126;SHT31;59999;51.676;22.650;2022-12-07T06:04:46;0.79;92.58
72126;SHT31;59999;51.676;22.650;2022-12-07T06:07:13;0.80;92.67
72126;SHT31;59999;51.676;22.650;2022-12-07T06:09:40;0.80;92.68
72126;SHT31;59999;51.676;22.650;2022-12-07T06:12:09;0.83;92.62
72126;SHT31;59999;51.676;22.650;2022-12-07T06:14:54;0.77;92.69
72126;SHT31;59999;51.676;22.650;2022-12-07T06:17:20;0.77;92.77
72126;SHT31;59999;51.676;22.650;2022-12-07T06:19:46;0.75;92.81
72126;SHT31;59999;51.676;22.650;2022-12-07T06:22:12;0.79;92.74
72126;SHT31;59999;51.676;22.650;2022-12-07T06:24:39;0.80;92.79
72126;SHT31;59999;51.676;22.650;2022-12-07T06:27:05;0.77;92.72
72126;SHT31;59999;51.676;22.650;2022-12-07T06:29:32;0.80;92.81
72126;SHT31;59999;51.676;22.650;2022-12-07T06:31:58;0.79;92.83
72126;SHT31;59999;51.676;22.650;2022-12-07T06:34:25;0.80;92.87
72126;SHT31;59999;51.676;22.650;2022-12-07T06:36:52;0.84;92.72
72126;SHT31;59999;51.676;22.650;2022-12-07T06:39:23;0.83;92.63
72126;SHT31;59999;51.676;22.650;2022-12-07T06:41:49;0.83;92.73
72126;SHT31;59999;51.676;22.650;2022-12-07T06:44:18;0.83;92.75
72126;SHT31;59999;51.676;22.650;2022-12-07T06:46:44;0.84;92.83
72126;SHT31;59999;51.676;22.650;2022-12-07T06:49:10;0.83;92.78
72126;SHT31;59999;51.676;22.650;2022-12-07T06:51:37;0.83;92.80
72126;SHT31;59999;51.676;22.650;2022-12-07T06:54:08;0.82;92.63
72126;SHT31;59999;51.676;22.650;2022-12-07T06:56:34;0.80;92.72
72126;SHT31;59999;51.676;22.650;2022-12-07T06:59:00;0.80;92.77
72126;SHT31;59999;51.676;22.650;2022-12-07T07:01:25;0.83;92.75
72126;SHT31;59999;51.676;22.650;2022-12-07T07:03:52;0.83;92.78
72126;SHT31;59999;51.676;22.650;2022-12-07T07:06:18;0.80;92.81
72126;SHT31;59999;51.676;22.650;2022-12-07T07:08:44;0.86;92.75
72126;SHT31;59999;51.676;22.650;2022-12-07T07:11:10;0.83;92.78
72126;SHT31;59999;51.676;22.650;2022-12-07T07:13:36;0.83;92.77
72126;SHT31;59999;51.676;22.650;2022-12-07T07:16:03;0.89;92.65
72126;SHT31;59999;51.676;22.650;2022-12-07T07:18:29;0.90;92.49
72126;SHT31;59999;51.676;22.650;2022-12-07T07:20:55;0.94;92.37
72126;SHT31;59999;51.676;22.650;2022-12-07T07:23:21;0.93;92.38
72126;SHT31;59999;51.676;22.650;2022-12-07T07:25:47;0.90;92.40
72126;SHT31;59999;51.676;22.650;2022-12-07T07:28:14;0.90;92.47
72126;SHT31;59999;51.676;22.650;2022-12-07T07:30:40;0.94;92.40
72126;SHT31;59999;51.676;22.650;2022-12-07T07:33:06;0.94;92.48
72126;SHT31;59999;51.676;22.650;2022-12-07T07:35:33;0.91;92.41
72126;SHT31;59999;51.676;22.650;2022-12-07T07:38:00;0.94;92.29
72126;SHT31;59999;51.676;22.650;2022-12-07T07:40:27;0.91;92.47
72126;SHT31;59999;51.676;22.650;2022-12-07T07:42:54;0.91;92.58
72126;SHT31;59999;51.676;22.650;2022-12-07T07:45:22;0.93;92.65
72126;SHT31;59999;51.676;22.650;2022-12-07T07:47:49;0.97;92.35
72126;SHT31;59999;51.676;22.650;2022-12-07T07:50:15;0.97;92.32
72126;SHT31;59999;51.676;22.650;2022-12-07T07:52:42;1.00;92.35
72126;SHT31;59999;51.676;22.650;2022-12-07T07:55:08;1.03;92.32
72126;SHT31;59999;51.676;22.650;2022-12-07T07:57:36;1.01;92.25
72126;SHT31;59999;51.676;22.650;2022-12-07T08:00:10;1.05;92.06
72126;SHT31;59999;51.676;22.650;2022-12-07T08:02:36;1.05;92.01
72126;SHT31;59999;51.676;22.650;2022-12-07T08:05:02;1.10;92.06
72126;SHT31;59999;51.676;22.650;2022-12-07T08:07:28;1.13;91.87
72126;SHT31;59999;51.676;22.650;2022-12-07T08:09:54;1.07;91.95
72126;SHT31;59999;51.676;22.650;2022-12-07T08:12:20;1.07;92.02
72126;SHT31;59999;51.676;22.650;2022-12-07T08:14:46;1.10;92.00
72126;SHT31;59999;51.676;22.650;2022-12-07T08:17:12;1.05;92.05
72126;SHT31;59999;51.676;22.650;2022-12-07T08:19:38;1.10;92.08
72126;SHT31;59999;51.676;22.650;2022-12-07T08:22:07;1.13;91.93
72126;SHT31;59999;51.676;22.650;2022-12-07T08:24:34;1.10;91.90
72126;SHT31;59999;51.676;22.650;2022-12-07T08:27:00;1.10;92.01
72126;SHT31;59999;51.676;22.650;2022-12-07T08:29:26;1.11;91.85
72126;SHT31;59999;51.676;22.650;2022-12-07T08:31:53;1.08;91.97
72126;SHT31;59999;51.676;22.650;2022-12-07T08:34:19;1.11;91.83
72126;SHT31;59999;51.676;22.650;2022-12-07T08:36:45;1.11;91.90
72126;SHT31;59999;51.676;22.650;2022-12-07T08:39:10;1.11;91.96
72126;SHT31;59999;51.676;22.650;2022-12-07T08:41:36;1.14;91.88
72126;SHT31;59999;51.676;22.650;2022-12-07T08:44:03;1.11;91.93
72126;SHT31;59999;51.676;22.650;2022-12-07T08:46:40;1.14;91.67
72126;SHT31;59999;51.676;22.650;2022-12-07T08:49:36;1.13;91.78
72126;SHT31;59999;51.676;22.650;2022-12-07T08:52:04;1.08;91.78
72126;SHT31;59999;51.676;22.650;2022-12-07T08:54:33;1.13;91.78
72126;SHT31;59999;51.676;22.650;2022-12-07T08:57:00;1.16;91.69
72126;SHT31;59999;51.676;22.650;2022-12-07T08:59:26;1.14;91.60
72126;SHT31;59999;51.676;22.650;2022-12-07T09:01:53;1.17;91.47
72126;SHT31;59999;51.676;22.650;2022-12-07T09:04:19;1.20;91.57
72126;SHT31;59999;51.676;22.650;2022-12-07T09:06:46;1.14;91.64
72126;SHT31;59999;51.676;22.650;2022-12-07T09:09:13;1.17;91.74
72126;SHT31;59999;51.676;22.650;2022-12-07T09:11:40;1.24;91.71
72126;SHT31;59999;51.676;22.650;2022-12-07T09:14:06;1.27;91.56
72126;SHT31;59999;51.676;22.650;2022-12-07T09:16:32;1.27;91.47
72126;SHT31;59999;51.676;22.650;2022-12-07T09:18:58;1.32;91.41
72126;SHT31;59999;51.676;22.650;2022-12-07T09:21:24;1.37;91.11
72126;SHT31;59999;51.676;22.650;2022-12-07T09:23:50;1.38;90.98
72126;SHT31;59999;51.676;22.650;2022-12-07T09:26:16;1.41;91.09
72126;SHT31;59999;51.676;22.650;2022-12-07T09:28:42;1.44;90.87
72126;SHT31;59999;51.676;22.650;2022-12-07T09:31:08;1.42;90.72
72126;SHT31;59999;51.676;22.650;2022-12-07T09:33:34;1.38;90.81
72126;SHT31;59999;51.676;22.650;2022-12-07T09:36:00;1.38;90.72
72126;SHT31;59999;51.676;22.650;2022-12-07T09:38:26;1.34;90.92
72126;SHT31;59999;51.676;22.650;2022-12-07T09:40:54;1.32;90.85
72126;SHT31;59999;51.676;22.650;2022-12-07T09:43:23;1.31;90.67
72126;SHT31;59999;51.676;22.650;2022-12-07T09:45:54;1.28;90.94
72126;SHT31;59999;51.676;22.650;2022-12-07T09:48:25;1.34;90.94
72126;SHT31;59999;51.676;22.650;2022-12-07T09:50:57;1.30;91.07
72126;SHT31;59999;51.676;22.650;2022-12-07T09:53:34;1.38;90.98
72126;SHT31;59999;51.676;22.650;2022-12-07T09:56:01;1.35;90.72
72126;SHT31;59999;51.676;22.650;2022-12-07T09:58:29;1.35;90.92
72126;SHT31;59999;51.676;22.650;2022-12-07T10:01:00;1.35;90.96
72126;SHT31;59999;51.676;22.650;2022-12-07T10:03:29;1.31;91.08
72126;SHT31;59999;51.676;22.650;2022-12-07T10:05:55;1.28;91.22
72126;SHT31;59999;51.676;22.650;2022-12-07T10:08:22;1.30;91.23
72126;SHT31;59999;51.676;22.650;2022-12-07T10:10:52;1.27;91.33
72126;SHT31;59999;51.676;22.650;2022-12-07T10:13:33;1.27;91.17
72126;SHT31;59999;51.676;22.650;2022-12-07T10:16:00;1.23;91.40
72126;SHT31;59999;51.676;22.650;2022-12-07T10:18:37;1.24;91.42
72126;SHT31;59999;51.676;22.650;2022-12-07T10:23:41;1.35;91.36
72126;SHT31;59999;51.676;22.650;2022-12-07T10:26:25;1.42;91.39
72126;SHT31;59999;51.676;22.650;2022-12-07T10:28:53;1.52;91.20
72126;SHT31;59999;51.676;22.650;2022-12-07T10:31:22;1.55;91.31
72126;SHT31;59999;51.676;22.650;2022-12-07T10:39:13;1.62;90.86
72126;SHT31;59999;51.676;22.650;2022-12-07T10:41:59;1.62;90.41
72126;SHT31;59999;51.676;22.650;2022-12-07T10:44:30;1.65;90.46
72126;SHT31;59999;51.676;22.650;2022-12-07T10:50:41;1.54;90.38
72126;SHT31;59999;51.676;22.650;2022-12-07T10:58:48;1.41;90.95
72126;SHT31;59999;51.676;22.650;2022-12-07T11:01:25;1.45;91.06
72126;SHT31;59999;51.676;22.650;2022-12-07T11:06:52;1.48;91.21
72126;SHT31;59999;51.676;22.650;2022-12-07T11:12:30;1.58;90.99
72126;SHT31;59999;51.676;22.650;2022-12-07T11:15:15;1.63;90.81
72126;SHT31;59999;51.676;22.650;2022-12-07T11:18:06;1.59;90.98
72126;SHT31;59999;51.676;22.650;2022-12-07T11:20:45;1.66;90.63
72126;SHT31;59999;51.676;22.650;2022-12-07T11:23:23;1.69;90.21
72126;SHT31;59999;51.676;22.650;2022-12-07T11:32:14;1.72;90.06
72126;SHT31;59999;51.676;22.650;2022-12-07T11:37:17;1.73;89.83
72126;SHT31;59999;51.676;22.650;2022-12-07T11:39:55;1.79;90.19
72126;SHT31;59999;51.676;22.650;2022-12-07T11:42:35;1.80;90.05
72126;SHT31;59999;51.676;22.650;2022-12-07T11:45:25;1.79;90.19
72126;SHT31;59999;51.676;22.650;2022-12-07T11:48:01;1.75;90.18
72126;SHT31;59999;51.676;22.650;2022-12-07T11:50:48;1.75;90.08
72126;SHT31;59999;51.676;22.650;2022-12-07T12:04:04;1.75;90.28
72126;SHT31;59999;51.676;22.650;2022-12-07T12:06:31;1.79;90.38
72126;SHT31;59999;51.676;22.650;2022-12-07T12:09:20;1.80;90.29
72126;SHT31;59999;51.676;22.650;2022-12-07T12:22:45;2.07;89.63
72126;SHT31;59999;51.676;22.650;2022-12-07T12:27:48;2.13;89.73
72126;SHT31;59999;51.676;22.650;2022-12-07T12:30:35;2.11;89.74
72126;SHT31;59999;51.676;22.650;2022-12-07T12:33:18;2.07;89.77
72126;SHT31;59999;51.676;22.650;2022-12-07T12:35:46;2.09;89.84
72126;SHT31;59999;51.676;22.650;2022-12-07T12:38:29;2.09;89.80
72126;SHT31;59999;51.676;22.650;2022-12-07T12:40:59;2.09;89.90
72126;SHT31;59999;51.676;22.650;2022-12-07T12:43:47;2.09;89.75
72126;SHT31;59999;51.676;22.650;2022-12-07T12:55:01;1.96;90.29
72126;SHT31;59999;51.676;22.650;2022-12-07T12:57:30;1.93;90.13
72126;SHT31;59999;51.676;22.650;2022-12-07T12:59:58;1.95;89.97
72126;SHT31;59999;51.676;22.650;2022-12-07T13:04:57;1.90;90.44
72126;SHT31;59999;51.676;22.650;2022-12-07T13:07:52;1.93;90.33
72126;SHT31;59999;51.676;22.650;2022-12-07T13:28:43;1.89;90.68
72126;SHT31;59999;51.676;22.650;2022-12-07T13:31:14;1.90;90.68
72126;SHT31;59999;51.676;22.650;2022-12-07T13:33:46;1.92;90.52
72126;SHT31;59999;51.676;22.650;2022-12-07T13:36:21;1.90;90.59
72126;SHT31;59999;51.676;22.650;2022-12-07T13:38:54;1.89;90.66
72126;SHT31;59999;51.676;22.650;2022-12-07T13:41:28;1.80;90.54
72126;SHT31;59999;51.676;22.650;2022-12-07T13:44:08;1.75;90.61
72126;SHT31;59999;51.676;22.650;2022-12-07T13:49:29;1.63;90.95
72126;SHT31;59999;51.676;22.650;2022-12-07T13:52:23;1.63;90.93
72126;SHT31;59999;51.676;22.650;2022-12-07T13:54:57;1.62;91.02
72126;SHT31;59999;51.676;22.650;2022-12-07T13:57:29;1.58;91.04
72126;SHT31;59999;51.676;22.650;2022-12-07T14:00:03;1.58;90.88
72126;SHT31;59999;51.676;22.650;2022-12-07T14:02:31;1.56;91.05
72126;SHT31;59999;51.676;22.650;2022-12-07T14:05:15;1.51;91.08
72126;SHT31;59999;51.676;22.650;2022-12-07T14:08:02;1.44;91.30
72126;SHT31;59999;51.676;22.650;2022-12-07T14:10:38;1.41;91.51
72126;SHT31;59999;51.676;22.650;2022-12-07T14:13:31;1.35;91.76
72126;SHT31;59999;51.676;22.650;2022-12-07T14:15:58;1.35;91.86
72126;SHT31;59999;51.676;22.650;2022-12-07T14:18:39;1.27;91.98
72126;SHT31;59999;51.676;22.650;2022-12-07T14:23:34;1.30;92.13
72126;SHT31;59999;51.676;22.650;2022-12-07T14:26:15;1.31;92.05
72126;SHT31;59999;51.676;22.650;2022-12-07T14:28:43;1.31;92.07
72126;SHT31;59999;51.676;22.650;2022-12-07T14:31:21;1.28;92.09
72126;SHT31;59999;51.676;22.650;2022-12-07T14:33:49;1.24;92.33
72126;SHT31;59999;51.676;22.650;2022-12-07T14:36:15;1.28;92.36
72126;SHT31;59999;51.676;22.650;2022-12-07T14:38:41;1.24;92.38
72126;SHT31;59999;51.676;22.650;2022-12-07T14:41:13;1.28;92.44
72126;SHT31;59999;51.676;22.650;2022-12-07T14:43:59;1.26;92.49
72126;SHT31;59999;51.676;22.650;2022-12-07T14:46:25;1.27;92.49
72126;SHT31;59999;51.676;22.650;2022-12-07T14:48:51;1.24;92.44
72126;SHT31;59999;51.676;22.650;2022-12-07T14:51:17;1.28;92.46
72126;SHT31;59999;51.676;22.650;2022-12-07T14:53:50;1.31;92.43
72126;SHT31;59999;51.676;22.650;2022-12-07T14:56:16;1.35;92.11
72126;SHT31;59999;51.676;22.650;2022-12-07T14:58:42;1.34;91.99
72126;SHT31;59999;51.676;22.650;2022-12-07T15:01:08;1.38;92.10
72126;SHT31;59999;51.676;22.650;2022-12-07T15:03:34;1.34;91.87
72126;SHT31;59999;51.676;22.650;2022-12-07T15:06:04;1.35;91.94
72126;SHT31;59999;51.676;22.650;2022-12-07T15:08:30;1.37;91.90
72126;SHT31;59999;51.676;22.650;2022-12-07T15:10:57;1.35;91.74
72126;SHT31;59999;51.676;22.650;2022-12-07T15:13:22;1.35;91.76
72126;SHT31;59999;51.676;22.650;2022-12-07T15:16:10;1.34;92.01
72126;SHT31;59999;51.676;22.650;2022-12-07T15:18:38;1.37;91.85
72126;SHT31;59999;51.676;22.650;2022-12-07T15:21:04;1.35;91.95
72126;SHT31;59999;51.676;22.650;2022-12-07T15:23:30;1.38;91.74
72126;SHT31;59999;51.676;22.650;2022-12-07T15:25:57;1.40;91.68
72126;SHT31;59999;51.676;22.650;2022-12-07T15:28:23;1.38;91.61
72126;SHT31;59999;51.676;22.650;2022-12-07T15:30:49;1.40;91.66
72126;SHT31;59999;51.676;22.650;2022-12-07T15:33:15;1.37;91.57
72126;SHT31;59999;51.676;22.650;2022-12-07T15:35:43;1.35;91.62
72126;SHT31;59999;51.676;22.650;2022-12-07T15:38:09;1.37;91.46
72126;SHT31;59999;51.676;22.650;2022-12-07T15:40:35;1.41;91.22
72126;SHT31;59999;51.676;22.650;2022-12-07T15:43:02;1.41;91.16
72126;SHT31;59999;51.676;22.650;2022-12-07T15:45:28;1.42;91.11
72126;SHT31;59999;51.676;22.650;2022-12-07T15:47:54;1.44;91.05
72126;SHT31;59999;51.676;22.650;2022-12-07T15:50:23;1.42;90.88
72126;SHT31;59999;51.676;22.650;2022-12-07T15:52:49;1.44;90.72
72126;SHT31;59999;51.676;22.650;2022-12-07T15:55:15;1.44;90.81
72126;SHT31;59999;51.676;22.650;2022-12-07T15:57:41;1.45;90.62
72126;SHT31;59999;51.676;22.650;2022-12-07T16:00:08;1.45;90.68
72126;SHT31;59999;51.676;22.650;2022-12-07T16:02:36;1.47;90.74
72126;SHT31;59999;51.676;22.650;2022-12-07T16:05:03;1.48;90.57
72126;SHT31;59999;51.676;22.650;2022-12-07T16:07:29;1.44;90.62
72126;SHT31;59999;51.676;22.650;2022-12-07T16:09:55;1.45;90.73
72126;SHT31;59999;51.676;22.650;2022-12-07T16:12:21;1.45;90.89
72126;SHT31;59999;51.676;22.650;2022-12-07T16:14:47;1.44;90.99
72126;SHT31;59999;51.676;22.650;2022-12-07T16:17:13;1.49;90.46
72126;SHT31;59999;51.676;22.650;2022-12-07T16:19:39;1.49;90.60
72126;SHT31;59999;51.676;22.650;2022-12-07T16:22:05;1.49;90.56
72126;SHT31;59999;51.676;22.650;2022-12-07T16:24:32;1.51;90.57
72126;SHT31;59999;51.676;22.650;2022-12-07T16:26:57;1.55;90.14
72126;SHT31;59999;51.676;22.650;2022-12-07T16:29:24;1.62;89.73
72126;SHT31;59999;51.676;22.650;2022-12-07T16:31:51;1.56;90.14
72126;SHT31;59999;51.676;22.650;2022-12-07T16:34:18;1.56;90.25
72126;SHT31;59999;51.676;22.650;2022-12-07T16:36:44;1.56;90.25
72126;SHT31;59999;51.676;22.650;2022-12-07T16:39:11;1.58;90.27
72126;SHT31;59999;51.676;22.650;2022-12-07T16:41:36;1.58;90.36
72126;SHT31;59999;51.676;22.650;2022-12-07T16:44:05;1.54;90.39
72126;SHT31;59999;51.676;22.650;2022-12-07T16:46:33;1.51;90.68
72126;SHT31;59999;51.676;22.650;2022-12-07T16:48:59;1.49;90.68
72126;SHT31;59999;51.676;22.650;2022-12-07T16:51:25;1.44;90.69
72126;SHT31;59999;51.676;22.650;2022-12-07T16:53:52;1.47;90.84
72126;SHT31;59999;51.676;22.650;2022-12-07T16:56:19;1.45;90.89
72126;SHT31;59999;51.676;22.650;2022-12-07T16:58:46;1.47;90.89
72126;SHT31;59999;51.676;22.650;2022-12-07T17:01:19;1.42;91.11
72126;SHT31;59999;51.676;22.650;2022-12-07T17:03:45;1.42;91.26
72126;SHT31;59999;51.676;22.650;2022-12-07T17:08:42;1.37;91.39
72126;SHT31;59999;51.676;22.650;2022-12-07T17:11:13;1.38;91.31
72126;SHT31;59999;51.676;22.650;2022-12-07T17:13:40;1.37;91.62
72126;SHT31;59999;51.676;22.650;2022-12-07T17:16:25;1.40;91.65
72126;SHT31;59999;51.676;22.650;2022-12-07T17:18:51;1.41;91.83
72126;SHT31;59999;51.676;22.650;2022-12-07T17:21:17;1.38;91.81
72126;SHT31;59999;51.676;22.650;2022-12-07T17:23:44;1.44;91.72
72126;SHT31;59999;51.676;22.650;2022-12-07T17:26:13;1.49;91.36
72126;SHT31;59999;51.676;22.650;2022-12-07T17:28:40;1.47;91.42
72126;SHT31;59999;51.676;22.650;2022-12-07T17:31:12;1.48;91.62
72126;SHT31;59999;51.676;22.650;2022-12-07T17:33:38;1.48;91.61
72126;SHT31;59999;51.676;22.650;2022-12-07T17:36:12;1.51;91.34
72126;SHT31;59999;51.676;22.650;2022-12-07T17:38:39;1.54;91.23